TimePDT,TemperatureF,Dew PointF,Humidity,Sea Level PressureIn,VisibilityMPH,Wind Direction,Wind SpeedMPH,Gust SpeedMPH,PrecipitationIn,Events,Conditions,WindDirDegrees,DateUTC
12:53 AM,68.0,39.9,36,29.91,10.0,ESE,4.6,-,N/A,,Clear,110,2013-08-22 07:53:00
1:53 AM,66.0,39.9,38,29.90,10.0,ESE,4.6,-,N/A,,Clear,110,2013-08-22 08:53:00
2:53 AM,64.9,39.9,40,29.90,10.0,ESE,5.8,-,N/A,,Clear,110,2013-08-22 09:53:00
3:53 AM,64.0,39.9,41,29.90,10.0,ESE,5.8,-,N/A,,Clear,110,2013-08-22 10:53:00
4:53 AM,64.9,39.9,40,29.89,10.0,ESE,4.6,-,N/A,,Clear,110,2013-08-22 11:53:00
5:53 AM,64.0,39.0,40,29.89,10.0,East,3.5,-,N/A,,Clear,100,2013-08-22 12:53:00
6:53 AM,66.0,41.0,40,29.90,10.0,Calm,Calm,-,N/A,,Clear,0,2013-08-22 13:53:00
7:53 AM,70.0,43.0,38,29.90,10.0,ESE,3.5,-,N/A,,Clear,110,2013-08-22 14:53:00
8:53 AM,73.0,43.0,34,29.89,10.0,SSW,3.5,-,N/A,,Clear,210,2013-08-22 15:53:00
9:53 AM,75.0,42.1,31,29.90,10.0,SW,4.6,-,N/A,,Clear,220,2013-08-22 16:53:00
10:53 AM,75.0,44.1,33,29.90,10.0,Calm,Calm,-,N/A,,Clear,0,2013-08-22 17:53:00
11:53 AM,81.0,42.1,25,29.88,10.0,SW,5.8,-,N/A,,Clear,230,2013-08-22 18:53:00
12:53 PM,86.0,43.0,22,29.85,10.0,SW,4.6,-,N/A,,Clear,220,2013-08-22 19:53:00
1:53 PM,88.0,39.9,18,29.84,10.0,SSE,4.6,-,N/A,,Clear,160,2013-08-22 20:53:00
2:53 PM,90.0,37.9,16,29.81,10.0,SW,4.6,-,N/A,,Clear,230,2013-08-22 21:53:00
3:53 PM,89.1,41.0,19,29.80,10.0,SSW,11.5,-,N/A,,Clear,210,2013-08-22 22:53:00
4:53 PM,87.1,46.0,24,29.81,10.0,SSW,12.7,-,N/A,,Clear,210,2013-08-22 23:53:00
5:53 PM,84.0,46.0,26,29.81,10.0,SSW,5.8,-,N/A,,Clear,200,2013-08-23 00:53:00
6:53 PM,82.0,43.0,25,29.83,10.0,South,11.5,-,N/A,,Mostly Cloudy,190,2013-08-23 01:53:00
7:53 PM,75.0,55.9,51,29.80,7.0,East,10.4,-,0.00,Rain,Light Rain,90,2013-08-23 02:53:00
8:53 PM,73.9,57.0,55,29.81,10.0,Calm,Calm,-,0.00,,Clear,0,2013-08-23 03:53:00
9:53 PM,73.0,55.9,55,29.83,10.0,ESE,3.5,-,N/A,,Clear,120,2013-08-23 04:53:00
10:53 PM,72.0,53.1,51,29.81,10.0,East,6.9,-,N/A,,Clear,90,2013-08-23 05:53:00
11:53 PM,72.0,52.0,49,29.80,10.0,East,5.8,-,N/A,,Clear,100,2013-08-23 06:53:00